sensor_id;sensor_type;location;lat;lon;timestamp;P1;durP1;ratioP1;P2;durP2;ratioP2
55692;SDS011;41590;53.366;5.212;2023-01-26T00:01:09;29.15;;;6.38;;
55692;SDS011;41590;53.366;5.212;2023-01-26T00:03:37;22.88;;;6.75;;
55692;SDS011;41590;53.366;5.212;2023-01-26T00:08:36;23.30;;;5.10;;
55692;SDS011;41590;53.366;5.212;2023-01-26T00:11:04;32.15;;;5.97;;
55692;SDS011;41590;53.366;5.212;2023-01-26T00:13:31;20.83;;;3.92;;
55692;SDS011;41590;53.366;5.212;2023-01-26T00:15:58;29.98;;;6.00;;
55692;SDS011;41590;53.366;5.212;2023-01-26T00:18:26;23.23;;;4.85;;
55692;SDS011;41590;53.366;5.212;2023-01-26T00:20:56;32.03;;;6.78;;
55692;SDS011;41590;53.366;5.212;2023-01-26T00:23:24;34.65;;;6.28;;
55692;SDS011;41590;53.366;5.212;2023-01-26T00:25:51;23.73;;;5.68;;
55692;SDS011;41590;53.366;5.212;2023-01-26T00:28:23;22.50;;;4.97;;
55692;SDS011;41590;53.366;5.212;2023-01-26T00:30:50;21.48;;;5.32;;
55692;SDS011;41590;53.366;5.212;2023-01-26T00:33:16;22.10;;;6.30;;
55692;SDS011;41590;53.366;5.212;2023-01-26T00:35:44;21.23;;;5.18;;
55692;SDS011;41590;53.366;5.212;2023-01-26T00:38:18;22.55;;;4.72;;
55692;SDS011;41590;53.366;5.212;2023-01-26T00:40:45;24.80;;;4.45;;
55692;SDS011;41590;53.366;5.212;2023-01-26T00:43:12;19.45;;;3.67;;
55692;SDS011;41590;53.366;5.212;2023-01-26T00:45:39;15.02;;;2.28;;
55692;SDS011;41590;53.366;5.212;2023-01-26T00:48:05;16.75;;;2.63;;
55692;SDS011;41590;53.366;5.212;2023-01-26T00:50:31;14.00;;;2.35;;
55692;SDS011;41590;53.366;5.212;2023-01-26T00:55:28;16.77;;;2.25;;
55692;SDS011;41590;53.366;5.212;2023-01-26T00:57:57;16.80;;;2.40;;
55692;SDS011;41590;53.366;5.212;2023-01-26T01:00:27;23.83;;;2.55;;
55692;SDS011;41590;53.366;5.212;2023-01-26T01:02:54;21.40;;;2.95;;
55692;SDS011;41590;53.366;5.212;2023-01-26T01:05:25;25.52;;;2.45;;
55692;SDS011;41590;53.366;5.212;2023-01-26T01:07:52;29.88;;;4.10;;
55692;SDS011;41590;53.366;5.212;2023-01-26T01:10:18;29.90;;;2.67;;
55692;SDS011;41590;53.366;5.212;2023-01-26T01:12:45;36.85;;;2.55;;
55692;SDS011;41590;53.366;5.212;2023-01-26T01:15:11;32.60;;;2.92;;
55692;SDS011;41590;53.366;5.212;2023-01-26T01:17:37;24.33;;;2.58;;
55692;SDS011;41590;53.366;5.212;2023-01-26T01:20:14;33.38;;;2.75;;
55692;SDS011;41590;53.366;5.212;2023-01-26T01:22:40;29.27;;;2.72;;
55692;SDS011;41590;53.366;5.212;2023-01-26T01:25:06;31.08;;;2.60;;
55692;SDS011;41590;53.366;5.212;2023-01-26T01:30:03;34.33;;;2.90;;
55692;SDS011;41590;53.366;5.212;2023-01-26T01:32:33;34.50;;;3.13;;
55692;SDS011;41590;53.366;5.212;2023-01-26T01:35:00;31.48;;;3.03;;
55692;SDS011;41590;53.366;5.212;2023-01-26T01:37:27;30.08;;;2.83;;
55692;SDS011;41590;53.366;5.212;2023-01-26T01:39:54;38.47;;;2.85;;
55692;SDS011;41590;53.366;5.212;2023-01-26T01:42:21;36.83;;;3.55;;
55692;SDS011;41590;53.366;5.212;2023-01-26T01:45:23;39.53;;;2.67;;
55692;SDS011;41590;53.366;5.212;2023-01-26T01:48:37;40.13;;;3.60;;
55692;SDS011;41590;53.366;5.212;2023-01-26T01:51:20;42.00;;;3.65;;
55692;SDS011;41590;53.366;5.212;2023-01-26T01:53:52;42.97;;;3.95;;
55692;SDS011;41590;53.366;5.212;2023-01-26T01:56:22;45.88;;;4.38;;
55692;SDS011;41590;53.366;5.212;2023-01-26T01:58:55;45.05;;;3.70;;
55692;SDS011;41590;53.366;5.212;2023-01-26T02:01:24;53.03;;;4.32;;
55692;SDS011;41590;53.366;5.212;2023-01-26T02:03:51;45.53;;;3.83;;
55692;SDS011;41590;53.366;5.212;2023-01-26T02:06:42;59.83;;;6.20;;
55692;SDS011;41590;53.366;5.212;2023-01-26T02:09:05;58.25;;;4.97;;
55692;SDS011;41590;53.366;5.212;2023-01-26T02:11:37;72.88;;;6.25;;
55692;SDS011;41590;53.366;5.212;2023-01-26T02:14:16;49.72;;;5.65;;
55692;SDS011;41590;53.366;5.212;2023-01-26T02:16:44;62.08;;;5.47;;
55692;SDS011;41590;53.366;5.212;2023-01-26T02:19:13;54.42;;;5.05;;
55692;SDS011;41590;53.366;5.212;2023-01-26T02:22:02;52.28;;;4.65;;
55692;SDS011;41590;53.366;5.212;2023-01-26T02:24:34;46.35;;;4.35;;
55692;SDS011;41590;53.366;5.212;2023-01-26T02:27:06;55.53;;;5.20;;
55692;SDS011;41590;53.366;5.212;2023-01-26T02:29:33;59.80;;;5.88;;
55692;SDS011;41590;53.366;5.212;2023-01-26T02:31:58;55.38;;;5.15;;
55692;SDS011;41590;53.366;5.212;2023-01-26T02:34:24;67.20;;;5.85;;
55692;SDS011;41590;53.366;5.212;2023-01-26T02:37:00;52.67;;;5.85;;
55692;SDS011;41590;53.366;5.212;2023-01-26T02:42:08;69.90;;;6.00;;
55692;SDS011;41590;53.366;5.212;2023-01-26T02:45:04;58.28;;;5.70;;
55692;SDS011;41590;53.366;5.212;2023-01-26T02:47:31;36.95;;;4.25;;
55692;SDS011;41590;53.366;5.212;2023-01-26T02:49:57;53.05;;;5.47;;
55692;SDS011;41590;53.366;5.212;2023-01-26T02:52:26;43.15;;;4.65;;
55692;SDS011;41590;53.366;5.212;2023-01-26T02:57:48;42.45;;;5.15;;
55692;SDS011;41590;53.366;5.212;2023-01-26T03:00:16;57.05;;;5.25;;
55692;SDS011;41590;53.366;5.212;2023-01-26T03:02:50;56.05;;;4.43;;
55692;SDS011;41590;53.366;5.212;2023-01-26T03:05:18;60.35;;;5.35;;
55692;SDS011;41590;53.366;5.212;2023-01-26T03:07:44;56.17;;;5.72;;
55692;SDS011;41590;53.366;5.212;2023-01-26T03:10:12;58.38;;;5.68;;
55692;SDS011;41590;53.366;5.212;2023-01-26T03:12:41;40.20;;;4.57;;
55692;SDS011;41590;53.366;5.212;2023-01-26T03:15:09;59.88;;;6.10;;
55692;SDS011;41590;53.366;5.212;2023-01-26T03:17:59;59.08;;;4.72;;
55692;SDS011;41590;53.366;5.212;2023-01-26T03:20:48;65.00;;;6.47;;
55692;SDS011;41590;53.366;5.212;2023-01-26T03:23:33;60.40;;;5.05;;
55692;SDS011;41590;53.366;5.212;2023-01-26T03:26:18;46.92;;;5.53;;
55692;SDS011;41590;53.366;5.212;2023-01-26T03:29:04;49.90;;;5.60;;
55692;SDS011;41590;53.366;5.212;2023-01-26T03:31:31;48.83;;;5.10;;
55692;SDS011;41590;53.366;5.212;2023-01-26T03:33:57;47.97;;;5.00;;
55692;SDS011;41590;53.366;5.212;2023-01-26T03:36:26;41.45;;;4.78;;
55692;SDS011;41590;53.366;5.212;2023-01-26T03:38:52;50.53;;;4.57;;
55692;SDS011;41590;53.366;5.212;2023-01-26T03:41:19;47.03;;;4.57;;
55692;SDS011;41590;53.366;5.212;2023-01-26T03:44:05;49.72;;;6.55;;
55692;SDS011;41590;53.366;5.212;2023-01-26T03:46:50;45.72;;;4.55;;
55692;SDS011;41590;53.366;5.212;2023-01-26T03:49:35;47.65;;;5.82;;
55692;SDS011;41590;53.366;5.212;2023-01-26T03:52:19;41.33;;;3.80;;
55692;SDS011;41590;53.366;5.212;2023-01-26T03:55:03;55.25;;;4.75;;
55692;SDS011;41590;53.366;5.212;2023-01-26T03:57:48;34.50;;;5.25;;
55692;SDS011;41590;53.366;5.212;2023-01-26T04:00:14;60.15;;;5.72;;
55692;SDS011;41590;53.366;5.212;2023-01-26T04:02:40;49.63;;;4.88;;
55692;SDS011;41590;53.366;5.212;2023-01-26T04:05:26;50.60;;;4.95;;
55692;SDS011;41590;53.366;5.212;2023-01-26T04:08:11;44.88;;;6.10;;
55692;SDS011;41590;53.366;5.212;2023-01-26T04:16:15;44.75;;;5.32;;
55692;SDS011;41590;53.366;5.212;2023-01-26T04:19:00;44.63;;;4.82;;
55692;SDS011;41590;53.366;5.212;2023-01-26T04:21:45;43.33;;;5.15;;
55692;SDS011;41590;53.366;5.212;2023-01-26T04:24:15;58.05;;;6.85;;
55692;SDS011;41590;53.366;5.212;2023-01-26T04:26:42;57.53;;;4.95;;
55692;SDS011;41590;53.366;5.212;2023-01-26T04:29:09;50.40;;;5.20;;
55692;SDS011;41590;53.366;5.212;2023-01-26T04:31:37;47.45;;;5.15;;
55692;SDS011;41590;53.366;5.212;2023-01-26T04:34:04;46.03;;;5.20;;
55692;SDS011;41590;53.366;5.212;2023-01-26T04:36:32;46.92;;;5.13;;
55692;SDS011;41590;53.366;5.212;2023-01-26T04:39:00;50.10;;;4.88;;
55692;SDS011;41590;53.366;5.212;2023-01-26T04:41:29;42.55;;;6.32;;
55692;SDS011;41590;53.366;5.212;2023-01-26T04:43:57;41.50;;;5.22;;
55692;SDS011;41590;53.366;5.212;2023-01-26T04:46:25;65.13;;;6.57;;
55692;SDS011;41590;53.366;5.212;2023-01-26T04:48:53;34.60;;;4.38;;
55692;SDS011;41590;53.366;5.212;2023-01-26T04:51:19;56.17;;;5.32;;
55692;SDS011;41590;53.366;5.212;2023-01-26T04:53:46;48.97;;;5.40;;
55692;SDS011;41590;53.366;5.212;2023-01-26T04:56:21;42.97;;;4.80;;
55692;SDS011;41590;53.366;5.212;2023-01-26T04:58:51;49.50;;;5.43;;
55692;SDS011;41590;53.366;5.212;2023-01-26T05:03:47;45.42;;;5.10;;
55692;SDS011;41590;53.366;5.212;2023-01-26T05:06:14;43.25;;;5.05;;
55692;SDS011;41590;53.366;5.212;2023-01-26T05:11:11;49.00;;;5.03;;
55692;SDS011;41590;53.366;5.212;2023-01-26T05:13:37;46.03;;;5.00;;
55692;SDS011;41590;53.366;5.212;2023-01-26T05:16:05;58.10;;;5.85;;
55692;SDS011;41590;53.366;5.212;2023-01-26T05:18:32;57.05;;;6.55;;
55692;SDS011;41590;53.366;5.212;2023-01-26T05:21:02;53.13;;;4.95;;
55692;SDS011;41590;53.366;5.212;2023-01-26T05:23:27;47.00;;;5.05;;
55692;SDS011;41590;53.366;5.212;2023-01-26T05:25:53;50.83;;;5.68;;
55692;SDS011;41590;53.366;5.212;2023-01-26T05:28:19;70.15;;;6.85;;
55692;SDS011;41590;53.366;5.212;2023-01-26T05:30:45;47.55;;;6.05;;
55692;SDS011;41590;53.366;5.212;2023-01-26T05:33:13;47.67;;;5.28;;
55692;SDS011;41590;53.366;5.212;2023-01-26T05:35:44;27.33;;;3.85;;
55692;SDS011;41590;53.366;5.212;2023-01-26T05:38:11;39.72;;;5.30;;
55692;SDS011;41590;53.366;5.212;2023-01-26T05:40:38;40.58;;;5.38;;
55692;SDS011;41590;53.366;5.212;2023-01-26T05:43:06;44.60;;;4.47;;
55692;SDS011;41590;53.366;5.212;2023-01-26T05:45:40;52.03;;;4.95;;
55692;SDS011;41590;53.366;5.212;2023-01-26T05:48:06;67.22;;;5.07;;
55692;SDS011;41590;53.366;5.212;2023-01-26T05:50:32;47.33;;;4.88;;
55692;SDS011;41590;53.366;5.212;2023-01-26T05:52:59;61.70;;;6.32;;
55692;SDS011;41590;53.366;5.212;2023-01-26T05:55:27;44.97;;;6.20;;
55692;SDS011;41590;53.366;5.212;2023-01-26T05:57:53;58.53;;;4.95;;
55692;SDS011;41590;53.366;5.212;2023-01-26T06:00:19;50.85;;;5.65;;
55692;SDS011;41590;53.366;5.212;2023-01-26T06:02:45;60.13;;;5.07;;
55692;SDS011;41590;53.366;5.212;2023-01-26T06:05:11;50.33;;;4.82;;
55692;SDS011;41590;53.366;5.212;2023-01-26T06:07:37;43.35;;;4.63;;
55692;SDS011;41590;53.366;5.212;2023-01-26T06:10:05;46.85;;;4.85;;
55692;SDS011;41590;53.366;5.212;2023-01-26T06:12:34;62.35;;;6.47;;
55692;SDS011;41590;53.366;5.212;2023-01-26T06:15:04;48.55;;;4.78;;
55692;SDS011;41590;53.366;5.212;2023-01-26T06:17:31;49.88;;;4.55;;
55692;SDS011;41590;53.366;5.212;2023-01-26T06:19:57;50.10;;;5.35;;
55692;SDS011;41590;53.366;5.212;2023-01-26T06:22:23;48.10;;;4.90;;
55692;SDS011;41590;53.366;5.212;2023-01-26T06:24:51;55.78;;;5.00;;
55692;SDS011;41590;53.366;5.212;2023-01-26T06:27:16;48.40;;;4.43;;
55692;SDS011;41590;53.366;5.212;2023-01-26T06:29:44;54.97;;;5.05;;
55692;SDS011;41590;53.366;5.212;2023-01-26T06:32:12;46.47;;;5.30;;
55692;SDS011;41590;53.366;5.212;2023-01-26T06:34:43;58.78;;;5.35;;
55692;SDS011;41590;53.366;5.212;2023-01-26T06:37:11;57.63;;;5.70;;
55692;SDS011;41590;53.366;5.212;2023-01-26T06:39:39;51.67;;;6.25;;
55692;SDS011;41590;53.366;5.212;2023-01-26T06:42:07;58.42;;;5.32;;
55692;SDS011;41590;53.366;5.212;2023-01-26T06:44:33;66.22;;;6.70;;
55692;SDS011;41590;53.366;5.212;2023-01-26T06:47:00;54.95;;;5.43;;
55692;SDS011;41590;53.366;5.212;2023-01-26T06:49:27;52.33;;;5.68;;
55692;SDS011;41590;53.366;5.212;2023-01-26T06:52:04;47.38;;;4.80;;
55692;SDS011;41590;53.366;5.212;2023-01-26T06:54:52;48.47;;;5.90;;
55692;SDS011;41590;53.366;5.212;2023-01-26T06:57:18;53.97;;;5.90;;
55692;SDS011;41590;53.366;5.212;2023-01-26T06:59:46;44.42;;;5.05;;
55692;SDS011;41590;53.366;5.212;2023-01-26T07:02:18;51.40;;;5.18;;
55692;SDS011;41590;53.366;5.212;2023-01-26T07:04:46;39.53;;;3.85;;
55692;SDS011;41590;53.366;5.212;2023-01-26T07:07:16;41.17;;;3.72;;
55692;SDS011;41590;53.366;5.212;2023-01-26T07:09:42;43.17;;;4.70;;
55692;SDS011;41590;53.366;5.212;2023-01-26T07:12:08;45.72;;;4.78;;
55692;SDS011;41590;53.366;5.212;2023-01-26T07:14:33;36.53;;;4.70;;
55692;SDS011;41590;53.366;5.212;2023-01-26T07:22:25;34.35;;;4.50;;
55692;SDS011;41590;53.366;5.212;2023-01-26T07:24:51;32.85;;;4.35;;
55692;SDS011;41590;53.366;5.212;2023-01-26T07:27:17;44.22;;;4.40;;
55692;SDS011;41590;53.366;5.212;2023-01-26T07:29:58;37.03;;;4.22;;
55692;SDS011;41590;53.366;5.212;2023-01-26T07:38:35;47.10;;;5.53;;
55692;SDS011;41590;53.366;5.212;2023-01-26T07:44:07;53.03;;;5.22;;
55692;SDS011;41590;53.366;5.212;2023-01-26T07:58:36;51.17;;;5.53;;
55692;SDS011;41590;53.366;5.212;2023-01-26T08:09:15;49.80;;;4.95;;
55692;SDS011;41590;53.366;5.212;2023-01-26T08:17:34;49.30;;;5.55;;
55692;SDS011;41590;53.366;5.212;2023-01-26T08:25:40;48.97;;;4.30;;
55692;SDS011;41590;53.366;5.212;2023-01-26T08:28:07;43.47;;;5.28;;
55692;SDS011;41590;53.366;5.212;2023-01-26T08:30:37;42.72;;;4.07;;
55692;SDS011;41590;53.366;5.212;2023-01-26T08:33:05;40.05;;;4.40;;
55692;SDS011;41590;53.366;5.212;2023-01-26T08:35:32;51.25;;;5.22;;
55692;SDS011;41590;53.366;5.212;2023-01-26T08:38:28;42.08;;;5.18;;
55692;SDS011;41590;53.366;5.212;2023-01-26T08:44:24;54.05;;;5.38;;
55692;SDS011;41590;53.366;5.212;2023-01-26T08:55:30;32.80;;;4.03;;
55692;SDS011;41590;53.366;5.212;2023-01-26T09:01:38;37.30;;;4.20;;
55692;SDS011;41590;53.366;5.212;2023-01-26T09:11:30;32.83;;;3.17;;
55692;SDS011;41590;53.366;5.212;2023-01-26T09:19:52;29.70;;;4.32;;
55692;SDS011;41590;53.366;5.212;2023-01-26T09:25:16;43.72;;;4.55;;
55692;SDS011;41590;53.366;5.212;2023-01-26T09:35:53;35.13;;;4.25;;
55692;SDS011;41590;53.366;5.212;2023-01-26T09:44:24;39.95;;;4.43;;
55692;SDS011;41590;53.366;5.212;2023-01-26T10:08:30;33.88;;;3.50;;
55692;SDS011;41590;53.366;5.212;2023-01-26T10:27:33;24.42;;;3.35;;
55692;SDS011;41590;53.366;5.212;2023-01-26T10:30:01;27.67;;;3.15;;
55692;SDS011;41590;53.366;5.212;2023-01-26T10:32:29;33.95;;;3.90;;
55692;SDS011;41590;53.366;5.212;2023-01-26T10:42:21;32.33;;;3.72;;
55692;SDS011;41590;53.366;5.212;2023-01-26T11:13:36;21.45;;;2.55;;
55692;SDS011;41590;53.366;5.212;2023-01-26T11:16:19;29.53;;;3.30;;
55692;SDS011;41590;53.366;5.212;2023-01-26T11:21:35;19.63;;;2.92;;
55692;SDS011;41590;53.366;5.212;2023-01-26T11:24:14;25.67;;;3.08;;
55692;SDS011;41590;53.366;5.212;2023-01-26T11:52:31;18.48;;;2.17;;
55692;SDS011;41590;53.366;5.212;2023-01-26T12:10:35;23.08;;;2.70;;
55692;SDS011;41590;53.366;5.212;2023-01-26T12:26:40;27.23;;;2.70;;
55692;SDS011;41590;53.366;5.212;2023-01-26T12:29:30;17.33;;;2.65;;
55692;SDS011;41590;53.366;5.212;2023-01-26T12:45:11;14.23;;;2.03;;
55692;SDS011;41590;53.366;5.212;2023-01-26T13:14:33;25.48;;;3.53;;
55692;SDS011;41590;53.366;5.212;2023-01-26T13:20:48;21.13;;;3.05;;
55692;SDS011;41590;53.366;5.212;2023-01-26T13:26:17;19.83;;;2.03;;
55692;SDS011;41590;53.366;5.212;2023-01-26T13:41:53;22.00;;;2.60;;
55692;SDS011;41590;53.366;5.212;2023-01-26T13:44:39;26.40;;;3.28;;
55692;SDS011;41590;53.366;5.212;2023-01-26T14:04:22;22.20;;;3.53;;
55692;SDS011;41590;53.366;5.212;2023-01-26T14:09:58;14.25;;;1.95;;
55692;SDS011;41590;53.366;5.212;2023-01-26T14:12:40;19.60;;;2.97;;
55692;SDS011;41590;53.366;5.212;2023-01-26T14:18:03;29.17;;;7.80;;
55692;SDS011;41590;53.366;5.212;2023-01-26T14:20:42;23.65;;;3.67;;
55692;SDS011;41590;53.366;5.212;2023-01-26T14:29:22;24.45;;;2.60;;
55692;SDS011;41590;53.366;5.212;2023-01-26T14:31:55;17.35;;;2.50;;
55692;SDS011;41590;53.366;5.212;2023-01-26T14:37:27;17.10;;;2.72;;
55692;SDS011;41590;53.366;5.212;2023-01-26T14:43:28;18.75;;;2.92;;
55692;SDS011;41590;53.366;5.212;2023-01-26T14:52:54;20.70;;;3.05;;
55692;SDS011;41590;53.366;5.212;2023-01-26T15:23:28;27.05;;;5.75;;
55692;SDS011;41590;53.366;5.212;2023-01-26T15:26:08;32.35;;;5.53;;
55692;SDS011;41590;53.366;5.212;2023-01-26T15:40:33;20.98;;;3.38;;
55692;SDS011;41590;53.366;5.212;2023-01-26T15:46:12;30.75;;;4.07;;
55692;SDS011;41590;53.366;5.212;2023-01-26T15:57:59;20.30;;;3.03;;
55692;SDS011;41590;53.366;5.212;2023-01-26T16:00:37;21.50;;;3.78;;
55692;SDS011;41590;53.366;5.212;2023-01-26T16:06:51;27.50;;;3.83;;
55692;SDS011;41590;53.366;5.212;2023-01-26T16:20:34;29.63;;;3.83;;
55692;SDS011;41590;53.366;5.212;2023-01-26T16:23:23;22.52;;;4.13;;
55692;SDS011;41590;53.366;5.212;2023-01-26T16:29:04;42.72;;;4.60;;
55692;SDS011;41590;53.366;5.212;2023-01-26T16:31:32;26.30;;;4.35;;
55692;SDS011;41590;53.366;5.212;2023-01-26T16:34:16;21.38;;;3.20;;
55692;SDS011;41590;53.366;5.212;2023-01-26T16:36:42;33.15;;;4.45;;
55692;SDS011;41590;53.366;5.212;2023-01-26T16:39:16;21.23;;;3.10;;
55692;SDS011;41590;53.366;5.212;2023-01-26T16:41:46;22.27;;;3.53;;
55692;SDS011;41590;53.366;5.212;2023-01-26T16:44:17;27.63;;;3.80;;
55692;SDS011;41590;53.366;5.212;2023-01-26T16:46:43;27.67;;;4.75;;
55692;SDS011;41590;53.366;5.212;2023-01-26T16:52:35;24.33;;;3.60;;
55692;SDS011;41590;53.366;5.212;2023-01-26T16:55:05;33.75;;;4.53;;
55692;SDS011;41590;53.366;5.212;2023-01-26T16:57:37;27.58;;;3.83;;
55692;SDS011;41590;53.366;5.212;2023-01-26T17:00:11;31.95;;;4.13;;
55692;SDS011;41590;53.366;5.212;2023-01-26T17:03:18;36.53;;;4.05;;
55692;SDS011;41590;53.366;5.212;2023-01-26T17:05:50;24.15;;;3.58;;
55692;SDS011;41590;53.366;5.212;2023-01-26T17:08:29;34.35;;;4.43;;
55692;SDS011;41590;53.366;5.212;2023-01-26T17:10:55;30.77;;;4.45;;
55692;SDS011;41590;53.366;5.212;2023-01-26T17:21:48;25.58;;;3.45;;
55692;SDS011;41590;53.366;5.212;2023-01-26T17:24:16;25.02;;;4.20;;
55692;SDS011;41590;53.366;5.212;2023-01-26T17:31:57;25.80;;;3.25;;
55692;SDS011;41590;53.366;5.212;2023-01-26T17:34:23;30.50;;;4.03;;
55692;SDS011;41590;53.366;5.212;2023-01-26T17:36:51;31.73;;;4.55;;
55692;SDS011;41590;53.366;5.212;2023-01-26T17:39:16;35.20;;;4.20;;
55692;SDS011;41590;53.366;5.212;2023-01-26T17:41:43;36.28;;;5.25;;
55692;SDS011;41590;53.366;5.212;2023-01-26T17:44:11;51.03;;;11.07;;
55692;SDS011;41590;53.366;5.212;2023-01-26T17:46:46;42.22;;;5.13;;
55692;SDS011;41590;53.366;5.212;2023-01-26T17:49:12;29.70;;;4.35;;
55692;SDS011;41590;53.366;5.212;2023-01-26T17:51:39;37.47;;;5.20;;
55692;SDS011;41590;53.366;5.212;2023-01-26T17:54:10;32.83;;;4.45;;
55692;SDS011;41590;53.366;5.212;2023-01-26T17:59:24;45.20;;;5.18;;
55692;SDS011;41590;53.366;5.212;2023-01-26T18:01:54;38.83;;;5.05;;
55692;SDS011;41590;53.366;5.212;2023-01-26T18:04:27;25.48;;;3.38;;
55692;SDS011;41590;53.366;5.212;2023-01-26T18:06:56;31.58;;;4.97;;
55692;SDS011;41590;53.366;5.212;2023-01-26T18:11:55;36.08;;;4.63;;
55692;SDS011;41590;53.366;5.212;2023-01-26T18:17:33;53.95;;;7.55;;
55692;SDS011;41590;53.366;5.212;2023-01-26T18:20:02;32.97;;;5.50;;
55692;SDS011;41590;53.366;5.212;2023-01-26T18:25:25;38.10;;;4.40;;
55692;SDS011;41590;53.366;5.212;2023-01-26T18:27:52;39.13;;;5.03;;
55692;SDS011;41590;53.366;5.212;2023-01-26T18:30:18;41.70;;;4.32;;
55692;SDS011;41590;53.366;5.212;2023-01-26T18:32:50;29.77;;;3.90;;
55692;SDS011;41590;53.366;5.212;2023-01-26T18:35:23;35.55;;;4.75;;
55692;SDS011;41590;53.366;5.212;2023-01-26T18:42:52;47.13;;;5.65;;
55692;SDS011;41590;53.366;5.212;2023-01-26T18:57:51;38.58;;;7.63;;
55692;SDS011;41590;53.366;5.212;2023-01-26T19:00:19;47.53;;;5.53;;
55692;SDS011;41590;53.366;5.212;2023-01-26T19:09:05;41.47;;;6.00;;
55692;SDS011;41590;53.366;5.212;2023-01-26T19:11:38;37.97;;;5.43;;
55692;SDS011;41590;53.366;5.212;2023-01-26T19:17:15;37.58;;;4.25;;
55692;SDS011;41590;53.366;5.212;2023-01-26T19:20:00;30.17;;;4.57;;
55692;SDS011;41590;53.366;5.212;2023-01-26T19:22:26;39.95;;;6.47;;
55692;SDS011;41590;53.366;5.212;2023-01-26T19:24:54;29.00;;;4.70;;
55692;SDS011;41590;53.366;5.212;2023-01-26T19:27:25;33.13;;;4.32;;
55692;SDS011;41590;53.366;5.212;2023-01-26T19:30:00;41.38;;;4.88;;
55692;SDS011;41590;53.366;5.212;2023-01-26T19:43:36;34.60;;;5.30;;
55692;SDS011;41590;53.366;5.212;2023-01-26T19:46:08;35.17;;;4.57;;
55692;SDS011;41590;53.366;5.212;2023-01-26T19:48:41;42.67;;;5.28;;
55692;SDS011;41590;53.366;5.212;2023-01-26T19:51:11;31.40;;;4.72;;
55692;SDS011;41590;53.366;5.212;2023-01-26T19:53:41;38.83;;;5.53;;
55692;SDS011;41590;53.366;5.212;2023-01-26T19:59:11;32.95;;;4.13;;
55692;SDS011;41590;53.366;5.212;2023-01-26T20:01:37;34.88;;;4.65;;
55692;SDS011;41590;53.366;5.212;2023-01-26T20:04:05;44.67;;;5.13;;
55692;SDS011;41590;53.366;5.212;2023-01-26T20:06:34;37.30;;;5.38;;
55692;SDS011;41590;53.366;5.212;2023-01-26T20:09:05;28.05;;;5.47;;
55692;SDS011;41590;53.366;5.212;2023-01-26T20:11:33;33.97;;;4.85;;
55692;SDS011;41590;53.366;5.212;2023-01-26T20:14:02;38.97;;;4.57;;
55692;SDS011;41590;53.366;5.212;2023-01-26T20:16:46;32.55;;;4.30;;
55692;SDS011;41590;53.366;5.212;2023-01-26T20:22:31;40.22;;;4.55;;
55692;SDS011;41590;53.366;5.212;2023-01-26T20:25:01;38.78;;;4.32;;
55692;SDS011;41590;53.366;5.212;2023-01-26T20:27:32;38.28;;;4.68;;
55692;SDS011;41590;53.366;5.212;2023-01-26T20:30:10;32.63;;;4.28;;
55692;SDS011;41590;53.366;5.212;2023-01-26T20:32:37;27.98;;;4.35;;
55692;SDS011;41590;53.366;5.212;2023-01-26T20:37:33;37.63;;;4.80;;
55692;SDS011;41590;53.366;5.212;2023-01-26T20:40:02;36.95;;;4.80;;
55692;SDS011;41590;53.366;5.212;2023-01-26T20:42:30;32.83;;;4.72;;
55692;SDS011;41590;53.366;5.212;2023-01-26T20:45:02;41.85;;;5.43;;
55692;SDS011;41590;53.366;5.212;2023-01-26T20:47:28;50.92;;;13.40;;
55692;SDS011;41590;53.366;5.212;2023-01-26T20:49:57;33.90;;;3.83;;
55692;SDS011;41590;53.366;5.212;2023-01-26T20:52:23;34.92;;;6.05;;
55692;SDS011;41590;53.366;5.212;2023-01-26T20:54:53;39.08;;;6.90;;
55692;SDS011;41590;53.366;5.212;2023-01-26T20:57:30;36.47;;;4.82;;
55692;SDS011;41590;53.366;5.212;2023-01-26T21:00:06;34.92;;;4.80;;
55692;SDS011;41590;53.366;5.212;2023-01-26T21:02:33;42.40;;;5.03;;
55692;SDS011;41590;53.366;5.212;2023-01-26T21:05:00;38.65;;;5.53;;
55692;SDS011;41590;53.366;5.212;2023-01-26T21:10:10;32.75;;;4.43;;
55692;SDS011;41590;53.366;5.212;2023-01-26T21:12:36;39.83;;;8.40;;
55692;SDS011;41590;53.366;5.212;2023-01-26T21:15:03;31.73;;;4.22;;
55692;SDS011;41590;53.366;5.212;2023-01-26T21:20:04;34.65;;;4.75;;
55692;SDS011;41590;53.366;5.212;2023-01-26T21:22:32;21.52;;;4.03;;
55692;SDS011;41590;53.366;5.212;2023-01-26T21:25:13;39.60;;;6.45;;
55692;SDS011;41590;53.366;5.212;2023-01-26T21:27:43;43.50;;;5.68;;
55692;SDS011;41590;53.366;5.212;2023-01-26T21:30:11;40.83;;;4.97;;
55692;SDS011;41590;53.366;5.212;2023-01-26T21:32:39;37.22;;;5.88;;
55692;SDS011;41590;53.366;5.212;2023-01-26T21:35:23;31.92;;;5.28;;
55692;SDS011;41590;53.366;5.212;2023-01-26T21:40:25;28.48;;;3.67;;
55692;SDS011;41590;53.366;5.212;2023-01-26T21:48:13;25.13;;;3.33;;
55692;SDS011;41590;53.366;5.212;2023-01-26T21:51:01;22.40;;;2.83;;
55692;SDS011;41590;53.366;5.212;2023-01-26T21:58:52;28.70;;;3.67;;
55692;SDS011;41590;53.366;5.212;2023-01-26T22:01:21;18.50;;;3.15;;
55692;SDS011;41590;53.366;5.212;2023-01-26T22:09:21;24.05;;;3.58;;
55692;SDS011;41590;53.366;5.212;2023-01-26T22:11:57;23.63;;;3.38;;
55692;SDS011;41590;53.366;5.212;2023-01-26T22:14:25;22.80;;;3.60;;
55692;SDS011;41590;53.366;5.212;2023-01-26T22:16:51;33.40;;;3.83;;
55692;SDS011;41590;53.366;5.212;2023-01-26T22:21:58;23.77;;;3.70;;
55692;SDS011;41590;53.366;5.212;2023-01-26T22:24:27;25.33;;;3.13;;
55692;SDS011;41590;53.366;5.212;2023-01-26T22:32:06;25.98;;;3.80;;
55692;SDS011;41590;53.366;5.212;2023-01-26T22:34:32;29.42;;;5.03;;
55692;SDS011;41590;53.366;5.212;2023-01-26T22:37:04;26.20;;;4.95;;
55692;SDS011;41590;53.366;5.212;2023-01-26T22:39:32;28.20;;;3.75;;
55692;SDS011;41590;53.366;5.212;2023-01-26T22:42:03;30.63;;;4.72;;
55692;SDS011;41590;53.366;5.212;2023-01-26T22:44:30;35.10;;;4.53;;
55692;SDS011;41590;53.366;5.212;2023-01-26T22:46:56;20.15;;;3.42;;
55692;SDS011;41590;53.366;5.212;2023-01-26T22:49:22;13.75;;;3.45;;
55692;SDS011;41590;53.366;5.212;2023-01-26T22:51:50;21.67;;;3.28;;
55692;SDS011;41590;53.366;5.212;2023-01-26T22:54:22;20.90;;;2.78;;
55692;SDS011;41590;53.366;5.212;2023-01-26T22:56:50;19.17;;;3.58;;
55692;SDS011;41590;53.366;5.212;2023-01-26T22:59:16;20.50;;;2.47;;
55692;SDS011;41590;53.366;5.212;2023-01-26T23:01:42;16.25;;;2.75;;
55692;SDS011;41590;53.366;5.212;2023-01-26T23:04:09;19.92;;;3.33;;
55692;SDS011;41590;53.366;5.212;2023-01-26T23:06:37;19.15;;;2.80;;
55692;SDS011;41590;53.366;5.212;2023-01-26T23:09:04;11.73;;;2.55;;
55692;SDS011;41590;53.366;5.212;2023-01-26T23:11:30;16.27;;;3.25;;
55692;SDS011;41590;53.366;5.212;2023-01-26T23:14:02;19.02;;;2.60;;
55692;SDS011;41590;53.366;5.212;2023-01-26T23:16:28;15.25;;;3.38;;
55692;SDS011;41590;53.366;5.212;2023-01-26T23:18:56;25.05;;;4.78;;
55692;SDS011;41590;53.366;5.212;2023-01-26T23:21:25;14.73;;;3.55;;
55692;SDS011;41590;53.366;5.212;2023-01-26T23:23:56;17.88;;;3.15;;
55692;SDS011;41590;53.366;5.212;2023-01-26T23:26:23;21.08;;;3.05;;
55692;SDS011;41590;53.366;5.212;2023-01-26T23:34:25;19.58;;;2.55;;
55692;SDS011;41590;53.366;5.212;2023-01-26T23:36:52;10.90;;;2.33;;
55692;SDS011;41590;53.366;5.212;2023-01-26T23:39:24;16.77;;;2.28;;
55692;SDS011;41590;53.366;5.212;2023-01-26T23:44:31;6.10;;;1.98;;
55692;SDS011;41590;53.366;5.212;2023-01-26T23:49:37;10.55;;;1.95;;
55692;SDS011;41590;53.366;5.212;2023-01-26T23:52:06;8.95;;;2.58;;